vendredi 13 juin 2014

ALERTE SPOTTING 13/06/14

32A EC-LVP Vueling (sticker Linking Europe)
      dpt VY1983  07h00
   VY1984/VY8155  12h50/17h30
 arv  VY8154 21h45
 
320 F-GHQE Air Corsica (blanc avec titre)
   XK4503/XK4502  11h50/12h55
  XK4505/XK4504  20h15/21h20
 
 73H OO-JFD Jetairfly (arrière fuselage et winglets Flydubai)
   JAF5303/JAF5304  13h35/14h25

73H EC-JHK Air Europa (couluer Skyteam)
   UX1029/UX1222  16h05/17h00

320 Pegasus TC-DCD
   PC873/PC874  17h40/18h30


Manque les prévisions de certains AB/AH/AZ/BA/BE/IB/KM/TP/TU

*** Horaires en Heure Locale ***
Prévisions matinales soumises à modifications de dernières minutes.

Voir le log du mois pour la version 'définitive' de la journée: 
 http://www.airkalo.com/ORLYAVIATION/Logdumois.html

le TAF de la journée:

METAR: LFPO 130230Z 03006KT CAVOK 15/11 Q1023 NOSIG=
TAF LONG: LFPO 122300Z 1300/1406 02010KT CAVOK=

dimanche 8 juin 2014

ALERTE SPOTTING 08/06/14 (MàJ 05h00)

320 F-GHQE Air Corsica (blanc avec titre)
   XK4511/XK757  07h35/08h25
  XK756/XK4512  12h30/13h35

32A EC-LVP Vueling (sticker Linking Europe)
      dpt VY1983  07h00
    VY1984/VY1985  12h10/12h45
   VY1986/VY8029 17h25/18h15
 VY8028 22h10
   
320 blanc G-POWI
   U24242/U24243 09H30/10h00

IL9 CU-T1251 Cubana
   CU444/CU445  12h35/15h05

Manque les prévisions de certains AB/AH/AZ/BA/BE/IB/KM/TP/TU

*** Horaires en Heure Locale ***
Prévisions matinales soumises à modifications de dernières minutes.

Voir le log du mois pour la version 'définitive' de la journée: 
 http://www.airkalo.com/ORLYAVIATION/Logdumois.html

le TAF de la journée:


METAR: LFPO 080230Z 06005KT 010V110 8000 RA FEW033CB BKN100 17/15
Q1018 RETS TEMPO 2000 TSRA SCT040CB=
TAF LONG: LFPO 072300Z 0800/0906 35007KT CAVOK
TEMPO 0800/0807 36015G25KT 4000 SHRA SCT035TCU BKN080
PROB40 TEMPO 0800/0803 36020G35KT 2000 -TSRA BKN030CB
PROB40 TEMPO 0816/0824 04015G30KT 3000 -TSRA SCT030CB BKN050= 

samedi 7 juin 2014

ALERTE SPOTTING 07/06/14 (MàJ 05h00)

764 United N78060
   dpt UA1855 06h00

32A EC-LVP Vueling (sticker Linkin Europe)
      dpt VY8007 06h55
    VY8008/VY7900  10h50/11h35
  arv VY7901  18h10

320 D-ABFK Air Berlin (sticker Fan Force One)
   AB8154/AB8155  08h40/09h10
  
320 blanc G-POWI
   U24242/U24243 09H05/09h35
  
73H OO-JFD Jetairfly (arrière fuselage Flydubai)
  JAF6449/JAF64650  10h10/14h50

763 Transaero EI-DBU
   UN555/UN556   13h15/14h50

M83 EC-LEY Swiftair (blanc)
        dpt ZI255
    ZI256/ZI256F  13h25/14h20

Manque les prévisions de certains AB/AH/AZ/BA/BE/IB/KM/TP/TU

*** Horaires en Heure Locale ***
Prévisions matinales soumises à modifications de dernières minutes.

Voir le log du mois pour la version 'définitive' de la journée: 
 http://www.airkalo.com/ORLYAVIATION/Logdumois.html

le TAF de la journée:

METAR: LFPO 070230Z 20003KT CAVOK 20/13 Q1011 NOSIG=
TAF LONG: LFPO 062300Z 0700/0806 12006KT CAVOK BECMG 0708/0710 22007KT
PROB30 TEMPO 0710/0714 SHRA SCT070TCU BECMG 0800/0803 35005KT PROB30
TEMPO 0722/0805 SHRA BKN070TCU= 

mercredi 4 juin 2014

ALERTE SPOTTING 04/06/14 (MàJ 05h00)


320 F-GHQE Air Corsica (blanc avec titre)
   XK4501/xk4500   07h35/08h30
 
320 blanc? G-POWI
   U24242/U24243  09h05/09h35

73H CN-RGN RAM (sticker 50th 737)
   AT764/AT765   16h15/17h30

Manque les prévisions de certains AB/AH/AZ/BA/BE/IB/KM/TP/TU

*** Horaires en Heure Locale ***
Prévisions matinales soumises à modifications de dernières minutes.

Voir le log du mois pour la version 'définitive' de la journée: 
 http://www.airkalo.com/ORLYAVIATION/Logdumois.html

le TAF de la journée:

METAR: LFPO 040230Z 19004KT 160V220 9999 -RA FEW026 SCT046 BKN080
13/12 Q1008 TEMPO 5000 RA BKN010=
TAF LONG: LFPO 032300Z 0400/0506 19005KT 9999 -RA SCT015 BKN050 TEMPO
0400/0412 4000 RA BKN008 PROB30 TEMPO 0411/0412 20020G30KT 2000 TSRA
SCT020CB FM041200 26015KT 9999 SCT020 TEMPO 0412/0418 26015G25KT
PROB30 TEMPO 0412/0418 SCT020TCU BECMG 0503/0506 22005KT= 

mardi 3 juin 2014

ALERTE SPOTTING 03/06/14 (MàJ 05h00)

320 F-GHQE Air Corsica (blanc avec titre)
   XK4503/XK4502   11h50/12h55
 XK4505/XK4504   20h15/21h20

 
142 D-AWUE WDL
   A58230/A5651  08h15/08h45
 A5651/?  12h00/?

73H CN-RGN RAM (sticker 50th 737)
    AT662/AT663  12h15/13h15

E95 EC-LFZ Air Europa (sticker)
    UX1297/UX1298  16h40/17h4
 
73H LN-NOL Norwegian (dérive 6000th 737)
    DY1496/DY1497   19h50/20h30

73H D-ABME Air Berlin (couleur Oneworld)
   AB8156/AB8157 20h20/21h05

Manque les prévisions de certains AB/AH/AZ/BA/BE/IB/KM/TP/TU

*** Horaires en Heure Locale ***
Prévisions matinales soumises à modifications de dernières minutes.

Voir le log du mois pour la version 'définitive' de la journée: 
 http://www.airkalo.com/ORLYAVIATION/Logdumois.html

le TAF de la journée:


METAR: LFPO 030230Z 25003KT 9999 FEW040 SCT060 BKN096 13/11 Q1017
NOSIG=
TAF LONG: LFPO 022300Z 0300/0406 VRB02KT 9999 SCT040 BECMG 0307/0310
21005KT PROB40 TEMPO 0313/0319 4500 SHRA BKN030TCU TEMPO 0401/0406
3000 RA BKN012=

lundi 2 juin 2014

ALERTE SPOTTING 02/06/14 (MàJ 05h00)

73H D-ABMC Air Berlin
   AB8154/AB8155 07h55/08h45

320 F-GHQE Air Corsica (blanc avec titre)
   XK4511/XK4500   07h35/08h30

143 D-AWBA WDL
   A5650/?  08h05/?

73H Air Europa EC-JHK (couleur Skyteam)
   UX1027/UX1028  09h25/10h25

320 EC-JZQ Vueling (stickers Thanks)
   VY8024/VY8015  10h15/10h50
  VY8014/  14h40

142 D-AWUE WDL
   A58202/AF7336  11h20/11h55
 AF7341/A58203  19h15/19h45

73H CN-RGN RAM (sticker 50th 737)
   dpt At663 13h15
 AT664/AT629  21h00/22h00

320 CS-TNP TAP (couleur Star Alliance)
   TP442/TP441  15h25/16h10

Manque les prévisions de certains AB/AH/AZ/BA/BE/IB/KM/TP/TU

*** Horaires en Heure Locale ***
Prévisions matinales soumises à modifications de dernières minutes.

Voir le log du mois pour la version 'définitive' de la journée: 
 http://www.airkalo.com/ORLYAVIATION/Logdumois.html

le TAF de la journée:


METAR: LFPO 020230Z 30003KT CAVOK 13/10 Q1020 NOSIG=
TAF LONG: LFPO 012300Z 0200/0306 30005KT CAVOK BECMG 0201/0203 6000 SCT005
PROB30 TEMPO 0203/0207 4500 BR BKN005 BECMG 0207/0209 SCT025 BKN100
BECMG 0216/0218 CAVOK=